Time;durP1;ratioP1;P1;durP2;ratioP2;P2;SDS_P1;SDS_P2;PMS_P1;PMS_P2;Temp;Humidity;BMP_temperature;BMP_pressure;BME280_temperature;BME280_humidity;BME280_pressure;Samples;Min_cycle;Max_cycle;Signal;HPM_P1;HPM_P2
2022/09/27 00:01:11;;;;;;;32.20;30.60;;;11.00;99.90;;;;;;4992658;28;21062;-72
2022/09/27 00:03:38;;;;;;;33.30;31.47;;;11.00;99.90;;;;;;4992899;28;20509;-74
2022/09/27 00:06:11;;;;;;;31.60;30.20;;;11.00;99.90;;;;;;4993279;28;20451;-74
2022/09/27 00:08:38;;;;;;;31.93;30.43;;;11.10;99.90;;;;;;4992521;28;20458;-73
2022/09/27 00:11:07;;;;;;;32.13;30.63;;;11.10;99.90;;;;;;4992771;28;20449;-73
2022/09/27 00:13:34;;;;;;;32.50;31.00;;;11.10;99.90;;;;;;4992765;28;20550;-73
2022/09/27 00:16:04;;;;;;;33.00;31.37;;;11.10;99.90;;;;;;4992580;28;20532;-73
2022/09/27 00:18:31;;;;;;;33.17;31.57;;;11.10;99.90;;;;;;4992201;28;20541;-72
2022/09/27 00:21:06;;;;;;;32.40;30.80;;;11.10;99.90;;;;;;4992255;28;20577;-75
2022/09/27 00:23:33;;;;;;;32.60;30.90;;;11.10;99.90;;;;;;4992321;28;20446;-75
2022/09/27 00:26:00;;;;;;;33.33;31.73;;;11.10;99.90;;;;;;4992299;28;20485;-75
2022/09/27 00:28:27;;;;;;;32.27;30.47;;;11.10;99.90;;;;;;4992253;28;20462;-75
2022/09/27 00:30:55;;;;;;;32.00;30.30;;;11.10;99.90;;;;;;4992236;28;20450;-75
2022/09/27 00:33:21;;;;;;;31.97;30.37;;;11.00;99.90;;;;;;4992416;28;20446;-75
2022/09/27 00:35:48;;;;;;;32.67;31.00;;;11.00;99.90;;;;;;4992263;28;20465;-75
2022/09/27 00:38:17;;;;;;;33.30;31.80;;;11.00;99.90;;;;;;4992012;28;20454;-76
2022/09/27 00:40:45;;;;;;;31.83;30.43;;;11.00;99.90;;;;;;4991024;28;20485;-75
2022/09/27 00:43:18;;;;;;;31.53;30.03;;;11.00;99.90;;;;;;4991784;28;20827;-73
2022/09/27 00:45:50;;;;;;;31.20;29.80;;;11.00;99.90;;;;;;4992271;28;20458;-74
2022/09/27 00:48:21;;;;;;;30.80;29.30;;;11.00;99.90;;;;;;4992155;28;20481;-73
2022/09/27 00:50:50;;;;;;;31.00;29.50;;;11.00;99.90;;;;;;4992034;28;20445;-73
2022/09/27 00:53:24;;;;;;;32.70;31.00;;;11.00;99.90;;;;;;4991792;28;20447;-74
2022/09/27 00:55:54;;;;;;;31.43;29.93;;;11.00;99.90;;;;;;4991996;28;20451;-72
2022/09/27 00:58:24;;;;;;;30.13;28.73;;;11.00;99.90;;;;;;4991585;28;20509;-73
2022/09/27 01:00:55;;;;;;;32.10;29.83;;;11.00;99.90;;;;;;4991834;28;20999;-72
2022/09/27 01:03:29;;;;;;;30.50;29.00;;;11.00;99.90;;;;;;4991846;28;20805;-74
2022/09/27 01:05:58;;;;;;;29.63;28.20;;;11.00;99.90;;;;;;4991589;28;20454;-73
2022/09/27 01:08:26;;;;;;;30.70;29.30;;;11.00;99.90;;;;;;4991634;28;20482;-72
2022/09/27 01:11:09;;;;;;;29.30;28.00;;;11.00;99.90;;;;;;4992040;28;20446;-73
2022/09/27 01:13:43;;;;;;;29.90;28.50;;;11.10;99.90;;;;;;4991947;28;20443;-72
2022/09/27 01:16:21;;;;;;;28.80;27.50;;;11.10;99.90;;;;;;4991347;28;20452;-72
2022/09/27 01:19:00;;;;;;;27.77;26.37;;;11.10;99.90;;;;;;4991489;28;20447;-72
2022/09/27 01:21:40;;;;;;;26.90;25.70;;;11.10;99.90;;;;;;4991171;28;20494;-73
2022/09/27 01:24:39;;;;;;;26.40;25.20;;;11.10;99.90;;;;;;4991668;28;20458;-73
2022/09/27 01:27:50;;;;;;;25.57;24.47;;;11.20;99.90;;;;;;4991664;28;20481;-74
2022/09/27 01:30:23;;;;;;;24.87;23.67;;;11.20;99.90;;;;;;4970995;28;20458;-73
2022/09/27 01:32:58;;;;;;;24.63;23.33;;;11.20;99.90;;;;;;4991496;28;20925;-73
2022/09/27 01:35:35;;;;;;;23.10;22.10;;;11.20;99.90;;;;;;4990987;28;20450;-72
2022/09/27 01:38:12;;;;;;;21.23;20.47;;;11.20;99.90;;;;;;4990743;28;20450;-74
2022/09/27 01:40:46;;;;;;;21.67;20.80;;;11.20;99.90;;;;;;4991131;28;20454;-73
2022/09/27 01:43:17;;;;;;;21.60;20.70;;;11.20;99.90;;;;;;4991300;28;20522;-74
2022/09/27 01:45:51;;;;;;;20.93;20.10;;;11.30;99.90;;;;;;4991386;28;21173;-74
2022/09/27 01:48:22;;;;;;;20.27;19.37;;;11.30;99.90;;;;;;4991401;28;20458;-73
2022/09/27 01:50:52;;;;;;;18.53;17.83;;;11.40;99.90;;;;;;4991508;28;20461;-74
2022/09/27 01:53:23;;;;;;;18.90;18.20;;;11.30;99.90;;;;;;4991328;28;20453;-73
2022/09/27 01:55:52;;;;;;;17.63;17.03;;;11.50;99.90;;;;;;4991356;28;20462;-73
2022/09/27 01:58:25;;;;;;;16.53;15.93;;;11.50;99.90;;;;;;4991646;28;21096;-73
2022/09/27 02:00:55;;;;;;;16.13;15.43;;;11.50;99.90;;;;;;4991041;28;20455;-74
2022/09/27 02:03:25;;;;;;;15.60;15.00;;;11.60;99.90;;;;;;4991134;28;20807;-74
2022/09/27 02:05:55;;;;;;;14.73;13.90;;;11.70;99.90;;;;;;4990990;28;20454;-74
2022/09/27 02:08:31;;;;;;;14.23;13.73;;;11.70;99.90;;;;;;4990694;28;20451;-74
2022/09/27 02:11:03;;;;;;;14.57;14.07;;;11.70;99.90;;;;;;4990731;28;20454;-75
2022/09/27 02:13:36;;;;;;;14.30;13.80;;;11.80;99.90;;;;;;4990642;28;20485;-74
2022/09/27 02:16:16;;;;;;;14.90;14.20;;;11.90;99.90;;;;;;4990826;28;20451;-76
2022/09/27 02:18:51;;;;;;;14.70;14.20;;;11.80;99.90;;;;;;4990602;28;20738;-76
2022/09/27 02:21:21;;;;;;;17.07;16.40;;;11.80;99.90;;;;;;4990653;28;20486;-76
2022/09/27 02:23:51;;;;;;;18.47;17.77;;;11.80;99.90;;;;;;4990330;28;20460;-75
2022/09/27 02:26:22;;;;;;;24.00;23.00;;;11.80;99.90;;;;;;4990232;28;20457;-72
2022/09/27 02:28:57;;;;;;;26.93;25.70;;;11.80;99.90;;;;;;4990360;28;20450;-73
2022/09/27 02:31:25;;;;;;;27.90;26.70;;;11.70;99.90;;;;;;4989929;28;20795;-71
2022/09/27 02:33:56;;;;;;;27.97;26.77;;;11.60;99.90;;;;;;4989976;28;20873;-73
2022/09/27 02:36:23;;;;;;;29.27;27.87;;;11.60;99.90;;;;;;4990158;28;20454;-72
2022/09/27 02:38:50;;;;;;;29.47;28.10;;;11.60;99.90;;;;;;4989960;28;20454;-73
2022/09/27 02:41:18;;;;;;;29.60;28.30;;;11.60;99.90;;;;;;4989747;28;20584;-74
2022/09/27 02:43:50;;;;;;;30.33;28.67;;;11.50;99.90;;;;;;4990088;28;20477;-73
2022/09/27 02:46:33;;;;;;;28.73;27.43;;;11.50;99.90;;;;;;4990744;28;20454;-74
2022/09/27 02:49:15;;;;;;;29.77;28.37;;;11.30;99.90;;;;;;4990830;28;20568;-75
2022/09/27 02:51:51;;;;;;;28.90;27.57;;;11.20;99.90;;;;;;4990154;28;20450;-74
2022/09/27 02:54:26;;;;;;;29.83;28.43;;;11.20;99.90;;;;;;4990318;28;20457;-74
2022/09/27 02:57:03;;;;;;;30.47;29.07;;;11.10;99.90;;;;;;4991354;28;21015;-74
2022/09/27 02:59:36;;;;;;;30.80;29.30;;;11.00;99.90;;;;;;4990728;28;20473;-72
2022/09/27 03:02:11;;;;;;;31.10;29.60;;;11.00;99.90;;;;;;4990480;28;20487;-73
2022/09/27 03:04:44;;;;;;;30.20;28.80;;;10.90;99.90;;;;;;4989461;28;20866;-73
2022/09/27 03:07:12;;;;;;;28.80;27.50;;;10.90;99.90;;;;;;4989717;28;20479;-74
2022/09/27 03:09:46;;;;;;;29.27;27.97;;;10.80;99.90;;;;;;4989434;28;20462;-72
2022/09/27 03:12:14;;;;;;;30.60;29.20;;;10.70;99.90;;;;;;4989517;28;20449;-72
2022/09/27 03:14:41;;;;;;;30.13;28.83;;;10.70;99.90;;;;;;4989438;28;20455;-71
2022/09/27 03:17:09;;;;;;;30.13;28.80;;;10.60;99.90;;;;;;4989686;28;20532;-72
2022/09/27 03:19:35;;;;;;;30.00;28.70;;;10.60;99.90;;;;;;4989875;28;20460;-73
2022/09/27 03:22:02;;;;;;;29.57;28.27;;;10.60;99.90;;;;;;4989511;28;20828;-72
2022/09/27 03:24:29;;;;;;;30.30;28.80;;;10.50;99.90;;;;;;4989394;28;20865;-73
2022/09/27 03:26:55;;;;;;;29.50;28.10;;;10.60;99.90;;;;;;4989228;28;20953;-72
2022/09/27 03:29:22;;;;;;;28.33;26.93;;;10.60;99.90;;;;;;4989289;28;20453;-73
2022/09/27 03:31:49;;;;;;;28.70;27.50;;;10.60;99.90;;;;;;4989348;28;20456;-73
2022/09/27 03:34:17;;;;;;;28.87;27.57;;;10.60;99.90;;;;;;4988820;28;20451;-72
2022/09/27 03:36:44;;;;;;;28.90;27.50;;;10.70;99.90;;;;;;4988730;28;21159;-72
2022/09/27 03:39:10;;;;;;;29.03;27.70;;;10.60;99.90;;;;;;4988746;28;20492;-73
2022/09/27 03:41:37;;;;;;;28.53;27.10;;;10.70;99.90;;;;;;4988877;28;20486;-72
2022/09/27 03:44:04;;;;;;;30.07;28.50;;;10.70;99.90;;;;;;4988915;28;20494;-74
2022/09/27 03:46:31;;;;;;;28.97;27.73;;;10.70;99.90;;;;;;4988776;28;20454;-72
2022/09/27 03:48:58;;;;;;;26.73;25.63;;;10.70;99.90;;;;;;4988616;28;20533;-73
2022/09/27 03:51:26;;;;;;;28.40;27.20;;;10.70;99.90;;;;;;4988808;28;20453;-73
2022/09/27 03:53:52;;;;;;;28.03;26.80;;;10.60;99.90;;;;;;4988714;28;20461;-74
2022/09/27 03:56:19;;;;;;;27.27;26.00;;;10.60;99.90;;;;;;4989017;28;20458;-73
2022/09/27 03:58:46;;;;;;;26.20;25.10;;;10.60;99.90;;;;;;4988717;28;20499;-74
2022/09/27 04:01:13;;;;;;;27.40;26.20;;;10.60;99.90;;;;;;4989072;28;20999;-74
2022/09/27 04:03:39;;;;;;;28.67;27.10;;;10.70;99.90;;;;;;4988909;28;20487;-74
2022/09/27 04:06:07;;;;;;;27.70;26.50;;;10.70;99.90;;;;;;4988981;28;20513;-75
2022/09/27 04:08:35;;;;;;;27.30;26.10;;;10.70;99.90;;;;;;4988849;28;20454;-75
2022/09/27 04:11:02;;;;;;;27.00;25.90;;;10.80;99.90;;;;;;4992610;28;20451;-75
2022/09/27 04:13:29;;;;;;;26.70;25.20;;;10.80;99.90;;;;;;4993246;28;20527;-75
2022/09/27 04:15:56;;;;;;;26.30;25.00;;;10.80;99.90;;;;;;4989081;28;20467;-74
2022/09/27 04:18:22;;;;;;;25.43;24.33;;;10.80;99.90;;;;;;4992596;28;20458;-75
2022/09/27 04:20:49;;;;;;;24.90;23.90;;;10.80;99.90;;;;;;4992717;28;20454;-75
2022/09/27 04:23:16;;;;;;;25.40;24.30;;;10.80;99.90;;;;;;4992343;28;20482;-75
2022/09/27 04:25:44;;;;;;;24.97;23.80;;;10.90;99.90;;;;;;4992392;28;20458;-73
2022/09/27 04:28:11;;;;;;;25.83;24.67;;;10.90;99.90;;;;;;4992278;28;20458;-73
2022/09/27 04:30:37;;;;;;;24.43;23.33;;;10.90;99.90;;;;;;4992584;28;20459;-74
2022/09/27 04:33:04;;;;;;;24.73;23.63;;;10.90;99.90;;;;;;4992720;28;20446;-74
2022/09/27 04:38:15;;;;;;;22.67;21.67;;;11.00;99.90;;;;;;4991821;28;21025;-74
2022/09/27 04:40:43;;;;;;;23.50;22.60;;;11.10;99.90;;;;;;4991840;28;21007;-74
2022/09/27 04:43:10;;;;;;;24.37;23.20;;;11.10;99.90;;;;;;4991594;28;20486;-74
2022/09/27 04:45:37;;;;;;;22.97;22.03;;;11.20;99.90;;;;;;4992040;28;20454;-73
2022/09/27 04:48:03;;;;;;;22.97;21.93;;;11.10;99.90;;;;;;4991967;28;20454;-73
2022/09/27 04:50:31;;;;;;;22.97;21.97;;;11.10;99.90;;;;;;4991551;28;20446;-74
2022/09/27 04:52:58;;;;;;;22.47;21.57;;;11.10;99.90;;;;;;4991663;28;20533;-73
2022/09/27 04:55:24;;;;;;;23.60;22.47;;;11.10;99.90;;;;;;4991849;28;20853;-74
2022/09/27 04:57:53;;;;;;;21.53;20.60;;;11.10;99.90;;;;;;4991953;28;20478;-73
2022/09/27 05:00:20;;;;;;;22.00;20.80;;;11.10;99.90;;;;;;4992135;28;20458;-73
2022/09/27 05:02:47;;;;;;;21.50;20.60;;;11.20;99.90;;;;;;4991663;28;20486;-73
2022/09/27 05:05:14;;;;;;;22.03;20.93;;;11.20;99.90;;;;;;4991682;28;20517;-74
2022/09/27 05:07:41;;;;;;;22.60;21.40;;;11.30;99.90;;;;;;4991500;28;20458;-73
2022/09/27 05:10:09;;;;;;;22.53;21.43;;;11.30;99.90;;;;;;4991957;28;20466;-75
2022/09/27 05:12:36;;;;;;;20.60;19.70;;;11.30;99.90;;;;;;4991961;28;20466;-74
2022/09/27 05:15:04;;;;;;;21.47;20.27;;;11.20;99.90;;;;;;4991325;28;20455;-75
2022/09/27 05:17:31;;;;;;;22.80;21.70;;;11.10;99.90;;;;;;4991348;28;20816;-75
2022/09/27 05:19:58;;;;;;;24.97;23.63;;;11.10;99.90;;;;;;4991260;28;20458;-75
2022/09/27 05:22:25;;;;;;;25.67;24.40;;;11.10;99.90;;;;;;4990836;28;20514;-72
2022/09/27 05:24:52;;;;;;;25.13;23.93;;;11.10;99.90;;;;;;4991142;28;20947;-73
2022/09/27 05:27:19;;;;;;;23.63;22.47;;;11.10;99.90;;;;;;4990594;28;20458;-77
2022/09/27 05:29:46;;;;;;;25.27;24.00;;;11.10;99.90;;;;;;4991016;28;20793;-73
2022/09/27 05:32:15;;;;;;;23.13;21.93;;;11.00;99.90;;;;;;4990694;28;20585;-74
2022/09/27 05:34:41;;;;;;;24.10;23.10;;;11.10;99.90;;;;;;4991468;28;20458;-73
2022/09/27 05:37:08;;;;;;;23.30;21.90;;;11.00;99.90;;;;;;4990537;28;20458;-73
2022/09/27 05:39:35;;;;;;;24.53;23.13;;;11.00;99.90;;;;;;4991102;28;20454;-73
2022/09/27 05:42:03;;;;;;;24.60;23.30;;;11.00;99.90;;;;;;4990820;28;20470;-76
2022/09/27 05:44:30;;;;;;;26.10;24.57;;;11.00;99.90;;;;;;4990979;28;20558;-74
2022/09/27 05:47:00;;;;;;;24.70;23.60;;;11.10;99.90;;;;;;4991050;28;20459;-76
2022/09/27 05:49:28;;;;;;;27.97;26.43;;;11.10;99.90;;;;;;4991330;28;20599;-74
2022/09/27 05:51:55;;;;;;;29.40;27.80;;;11.00;99.90;;;;;;5004018;28;20454;-76
2022/09/27 05:54:22;;;;;;;27.37;25.73;;;11.10;99.90;;;;;;5010704;28;20786;-76
2022/09/27 05:56:50;;;;;;;26.47;25.03;;;11.00;99.90;;;;;;5010294;28;20509;-75
2022/09/27 05:59:16;;;;;;;24.87;23.67;;;11.10;99.90;;;;;;5009831;28;20911;-75
2022/09/27 06:01:43;;;;;;;26.10;24.80;;;11.10;99.90;;;;;;5009361;28;20512;-74
2022/09/27 06:04:10;;;;;;;25.27;23.80;;;11.10;99.90;;;;;;5009223;28;20546;-73
2022/09/27 06:06:38;;;;;;;26.80;25.50;;;11.00;99.90;;;;;;5009741;28;20465;-74
2022/09/27 06:09:05;;;;;;;23.00;22.10;;;11.10;99.90;;;;;;5009916;28;20528;-73
2022/09/27 06:11:31;;;;;;;25.37;24.30;;;11.10;99.90;;;;;;5009375;28;20457;-74
2022/09/27 06:13:58;;;;;;;26.30;25.03;;;11.00;99.90;;;;;;5009227;28;20733;-74
2022/09/27 06:16:25;;;;;;;27.70;26.30;;;11.00;99.90;;;;;;5009123;28;20934;-72
2022/09/27 06:18:52;;;;;;;27.87;26.67;;;10.90;99.90;;;;;;5009476;28;20707;-74
2022/09/27 06:21:19;;;;;;;27.30;26.10;;;11.00;99.90;;;;;;5009520;28;20537;-73
2022/09/27 06:23:47;;;;;;;27.97;26.77;;;11.10;99.90;;;;;;5008739;28;20492;-74
2022/09/27 06:26:14;;;;;;;29.23;27.83;;;11.10;99.90;;;;;;5008699;28;20467;-73
2022/09/27 06:28:40;;;;;;;26.00;24.80;;;11.20;99.90;;;;;;5009427;28;20856;-74
2022/09/27 06:31:10;;;;;;;27.00;25.60;;;11.20;99.90;;;;;;5009671;28;20487;-73
2022/09/27 06:33:37;;;;;;;26.57;25.20;;;11.20;99.90;;;;;;5009532;28;20454;-74
2022/09/27 06:36:05;;;;;;;26.93;25.53;;;11.30;99.90;;;;;;5009523;28;20454;-75
2022/09/27 06:38:32;;;;;;;26.47;25.37;;;11.40;99.90;;;;;;5008481;28;20454;-74
2022/09/27 06:41:03;;;;;;;26.10;24.90;;;11.50;99.90;;;;;;5009244;28;20450;-74
2022/09/27 06:43:32;;;;;;;25.30;23.97;;;11.60;99.90;;;;;;5009104;28;20486;-73
2022/09/27 06:46:03;;;;;;;25.47;24.40;;;11.60;99.90;;;;;;5008920;28;21058;-72
2022/09/27 06:48:30;;;;;;;24.83;23.83;;;11.70;99.90;;;;;;5008673;28;20531;-74
2022/09/27 06:50:57;;;;;;;23.13;22.13;;;11.80;99.90;;;;;;5008619;28;20472;-73
2022/09/27 06:53:25;;;;;;;23.27;22.20;;;11.80;99.90;;;;;;5008495;28;20964;-72
2022/09/27 06:55:52;;;;;;;22.10;21.30;;;11.80;99.90;;;;;;5009045;28;20457;-72
2022/09/27 07:01:04;;;;;;;23.77;22.77;;;11.90;99.90;;;;;;5009014;28;21032;-73
2022/09/27 07:03:33;;;;;;;23.00;22.10;;;11.90;99.90;;;;;;5008635;28;20508;-73
2022/09/27 07:06:01;;;;;;;23.87;22.83;;;11.90;99.90;;;;;;5008588;28;20454;-73
2022/09/27 07:08:29;;;;;;;20.97;20.17;;;11.90;99.90;;;;;;5008621;28;20452;-73
2022/09/27 07:11:01;;;;;;;19.70;19.00;;;11.90;99.90;;;;;;5008495;28;20662;-73
2022/09/27 07:13:33;;;;;;;20.53;19.83;;;12.00;99.90;;;;;;5008633;28;20543;-73
2022/09/27 07:16:00;;;;;;;18.83;18.13;;;12.00;99.90;;;;;;5008436;28;20460;-74
2022/09/27 07:18:27;;;;;;;18.60;18.00;;;12.10;99.90;;;;;;5008428;28;20571;-74
2022/09/27 07:20:55;;;;;;;20.80;20.10;;;12.10;99.90;;;;;;5008178;28;20486;-73
2022/09/27 07:23:22;;;;;;;21.33;20.63;;;12.30;99.90;;;;;;5008556;28;20577;-74
2022/09/27 07:25:49;;;;;;;22.80;22.00;;;12.20;99.90;;;;;;5008345;28;20446;-73
2022/09/27 07:28:18;;;;;;;21.97;20.97;;;12.20;99.90;;;;;;5008204;28;20465;-76
2022/09/27 07:30:46;;;;;;;21.20;20.40;;;12.20;99.90;;;;;;5009767;28;20865;-77
2022/09/27 07:33:13;;;;;;;20.30;19.60;;;12.40;99.90;;;;;;5008635;28;20591;-73
2022/09/27 07:35:40;;;;;;;20.80;20.00;;;12.60;99.90;;;;;;5008930;28;20446;-79
2022/09/27 07:38:08;;;;;;;20.50;19.80;;;12.60;99.90;;;;;;5009478;28;20450;-78
2022/09/27 07:40:36;;;;;;;21.37;20.67;;;12.60;99.90;;;;;;5009390;28;20454;-79
2022/09/27 07:43:03;;;;;;;21.47;20.77;;;12.50;99.90;;;;;;5010425;28;20486;-75
2022/09/27 07:45:31;;;;;;;22.30;21.50;;;12.30;99.90;;;;;;5008851;28;20454;-76
2022/09/27 07:47:59;;;;;;;22.87;22.07;;;12.10;99.90;;;;;;5008113;28;20790;-76
2022/09/27 07:50:27;;;;;;;22.33;21.53;;;12.00;99.90;;;;;;5009944;28;20508;-76
2022/09/27 07:52:55;;;;;;;21.70;20.90;;;12.20;99.90;;;;;;5012475;28;20445;-75
2022/09/27 07:55:23;;;;;;;18.70;18.03;;;12.40;99.90;;;;;;5012403;28;20472;-74
2022/09/27 07:57:50;;;;;;;18.73;18.13;;;12.60;99.90;;;;;;5012092;28;20478;-75
2022/09/27 08:00:19;;;;;;;16.40;15.90;;;12.60;99.90;;;;;;5011588;28;20983;-74
2022/09/27 08:02:46;;;;;;;13.83;13.43;;;12.70;99.90;;;;;;5011324;28;20445;-74
2022/09/27 08:05:14;;;;;;;12.67;12.27;;;12.60;99.90;;;;;;5011611;28;20883;-73
2022/09/27 08:07:41;;;;;;;11.67;11.37;;;12.60;99.90;;;;;;5000365;28;20457;-75
2022/09/27 08:10:09;;;;;;;10.60;10.23;;;12.70;99.90;;;;;;5001131;28;20446;-74
2022/09/27 08:12:36;;;;;;;11.00;10.70;;;12.70;99.90;;;;;;5000000;28;20501;-76
2022/09/27 08:15:03;;;;;;;10.90;10.50;;;12.90;99.90;;;;;;5002924;28;20449;-76
2022/09/27 08:17:30;;;;;;;10.80;10.40;;;13.30;99.90;;;;;;5002710;28;20952;-76
2022/09/27 08:19:57;;;;;;;10.73;10.33;;;13.80;99.90;;;;;;5000291;28;20794;-75
2022/09/27 08:22:25;;;;;;;11.20;10.80;;;14.00;99.90;;;;;;4991888;28;20554;-76
2022/09/27 08:24:51;;;;;;;10.70;10.30;;;13.80;99.90;;;;;;4992387;28;20501;-75
2022/09/27 08:27:18;;;;;;;10.77;10.37;;;13.60;99.90;;;;;;4991849;28;20465;-75
2022/09/27 08:29:46;;;;;;;10.70;10.40;;;13.50;99.90;;;;;;4991658;28;20454;-75
2022/09/27 08:32:14;;;;;;;10.63;10.33;;;13.40;99.90;;;;;;4991664;28;20564;-75
2022/09/27 08:34:41;;;;;;;11.43;11.03;;;13.40;99.90;;;;;;4991810;28;20839;-75
2022/09/27 08:37:07;;;;;;;11.50;11.10;;;13.70;99.90;;;;;;4995671;28;20447;-76
2022/09/27 08:39:35;;;;;;;11.70;11.30;;;13.80;99.90;;;;;;5011404;28;20460;-75
2022/09/27 08:42:10;;;;;;;11.20;10.90;;;14.20;99.90;;;;;;5010915;28;20951;-75
2022/09/27 08:44:46;;;;;;;11.73;11.13;;;14.50;99.90;;;;;;5011258;28;20485;-74
2022/09/27 08:47:17;;;;;;;11.87;11.17;;;14.70;99.90;;;;;;5007815;28;20461;-74
2022/09/27 08:49:50;;;;;;;10.83;10.43;;;15.00;99.90;;;;;;5010686;28;20653;-74
2022/09/27 08:52:20;;;;;;;11.73;11.20;;;14.90;99.90;;;;;;5010575;28;20481;-74
2022/09/27 08:54:50;;;;;;;11.73;11.30;;;14.70;99.90;;;;;;5010446;28;21061;-73
2022/09/27 08:57:17;;;;;;;11.10;10.80;;;14.70;99.90;;;;;;5010418;28;20561;-74
2022/09/27 08:59:50;;;;;;;10.77;10.47;;;14.80;99.90;;;;;;5004053;28;20565;-73
2022/09/27 09:02:20;;;;;;;11.80;11.40;;;15.00;99.90;;;;;;4998334;28;20450;-73
2022/09/27 09:04:49;;;;;;;11.57;11.17;;;15.20;99.90;;;;;;4994107;28;20853;-75
2022/09/27 09:07:31;;;;;;;12.80;12.10;;;15.00;99.90;;;;;;4990171;28;20967;-73
2022/09/27 09:10:06;;;;;;;11.73;11.07;;;15.10;99.90;;;;;;4990493;28;20451;-74
2022/09/27 09:12:48;;;;;;;11.40;11.10;;;15.00;99.90;;;;;;4990806;28;20447;-75
2022/09/27 09:15:53;;;;;;;11.93;11.30;;;14.80;99.90;;;;;;4990389;28;21103;-76
2022/09/27 09:18:33;;;;;;;10.20;9.90;;;14.60;99.90;;;;;;4990733;28;20458;-73
2022/09/27 09:21:09;;;;;;;10.60;10.20;;;14.90;99.90;;;;;;4990349;28;20482;-73
2022/09/27 09:24:00;;;;;;;11.00;10.70;;;15.40;99.90;;;;;;4990685;28;20493;-75
2022/09/27 09:26:37;;;;;;;11.23;10.77;;;16.10;99.90;;;;;;4981983;28;20454;-74
2022/09/27 09:29:19;;;;;;;10.93;10.63;;;16.70;99.90;;;;;;4990538;28;20442;-74
2022/09/27 09:31:53;;;;;;;12.03;11.40;;;17.60;99.90;;;;;;4990144;28;20443;-74
2022/09/27 09:34:23;;;;;;;11.70;11.30;;;18.90;98.80;;;;;;4990819;28;20466;-74
2022/09/27 09:36:56;;;;;;;13.23;12.63;;;19.60;97.50;;;;;;4990390;28;20810;-74
2022/09/27 09:39:26;;;;;;;11.40;11.00;;;20.00;96.00;;;;;;4990292;28;20509;-74
2022/09/27 09:42:06;;;;;;;12.80;12.20;;;19.60;94.80;;;;;;4990355;28;20491;-75
2022/09/27 09:44:43;;;;;;;10.20;9.90;;;18.60;96.40;;;;;;4988569;28;20861;-74
2022/09/27 09:47:16;;;;;;;10.67;10.27;;;18.50;97.40;;;;;;4989985;28;20457;-74
2022/09/27 09:49:46;;;;;;;11.30;10.90;;;17.90;96.90;;;;;;4988117;28;20470;-74
2022/09/27 09:52:18;;;;;;;11.63;11.23;;;17.70;96.80;;;;;;4989563;28;20473;-73
2022/09/27 09:54:47;;;;;;;11.00;10.70;;;18.10;96.10;;;;;;4989897;28;20463;-74
2022/09/27 09:57:20;;;;;;;12.43;11.97;;;18.50;94.60;;;;;;4990533;28;20475;-73
2022/09/27 09:59:53;;;;;;;12.93;12.40;;;19.80;92.90;;;;;;4990309;28;20548;-74
2022/09/27 10:02:31;;;;;;;12.10;11.70;;;20.30;90.90;;;;;;4990031;28;20473;-75
2022/09/27 10:04:57;;;;;;;10.77;10.37;;;21.00;87.10;;;;;;4989786;28;20489;-73
2022/09/27 10:07:27;;;;;;;12.40;11.87;;;21.80;87.50;;;;;;4989501;28;20505;-74
2022/09/27 10:09:59;;;;;;;12.40;11.90;;;22.30;97.00;;;;;;4989968;28;20457;-75
2022/09/27 10:12:28;;;;;;;12.43;11.70;;;21.00;89.80;;;;;;4989948;28;20469;-74
2022/09/27 10:14:59;;;;;;;11.10;10.70;;;19.90;86.20;;;;;;4989397;28;20446;-74
2022/09/27 10:17:33;;;;;;;12.83;12.30;;;21.30;97.40;;;;;;4989737;28;20451;-72
2022/09/27 10:20:02;;;;;;;12.77;12.37;;;21.70;97.10;;;;;;4989809;28;20941;-74
2022/09/27 10:22:35;;;;;;;12.50;11.90;;;22.10;94.90;;;;;;4989709;28;20938;-73
2022/09/27 10:25:06;;;;;;;11.30;10.90;;;22.50;94.90;;;;;;4989927;28;20995;-74
2022/09/27 10:27:42;;;;;;;11.97;11.57;;;21.40;93.90;;;;;;4989500;28;20462;-74
2022/09/27 10:30:27;;;;;;;12.80;12.03;;;20.10;95.60;;;;;;4988902;28;20554;-73
2022/09/27 10:32:58;;;;;;;12.13;11.73;;;19.40;98.00;;;;;;4989792;28;20459;-75
2022/09/27 10:35:35;;;;;;;11.80;11.40;;;18.30;97.90;;;;;;4989346;28;20846;-72
2022/09/27 10:38:22;;;;;;;12.50;12.00;;;17.40;90.00;;;;;;4987915;28;20537;-74
2022/09/27 10:40:49;;;;;;;12.53;12.03;;;16.10;92.80;;;;;;4988802;28;20512;-74
2022/09/27 10:43:29;;;;;;;10.73;10.30;;;15.80;95.00;;;;;;4989421;28;20457;-74
2022/09/27 10:46:04;;;;;;;12.13;11.70;;;15.80;98.00;;;;;;4989139;28;20531;-75
2022/09/27 10:48:31;;;;;;;11.00;10.57;;;15.60;99.90;;;;;;4989175;28;20469;-75
2022/09/27 10:51:00;;;;;;;10.80;10.30;;;15.30;99.90;;;;;;4989008;28;20454;-72
2022/09/27 10:53:29;;;;;;;11.00;10.60;;;15.50;99.70;;;;;;4989226;28;20652;-75
2022/09/27 10:55:56;;;;;;;11.13;10.73;;;15.90;98.20;;;;;;4989026;28;20447;-74
2022/09/27 10:58:29;;;;;;;11.43;10.83;;;16.10;96.50;;;;;;4988936;28;20493;-74
2022/09/27 11:00:59;;;;;;;11.40;10.93;;;16.40;95.90;;;;;;4988983;28;20470;-73
2022/09/27 11:03:28;;;;;;;11.43;10.80;;;16.50;95.40;;;;;;4988700;28;20450;-74
2022/09/27 11:05:55;;;;;;;10.70;10.40;;;16.30;96.00;;;;;;4988798;28;20490;-74
2022/09/27 11:08:29;;;;;;;11.70;11.23;;;16.30;96.20;;;;;;4989075;28;20455;-74
2022/09/27 11:11:06;;;;;;;11.43;10.93;;;16.30;96.10;;;;;;4988937;28;20450;-74
2022/09/27 11:13:35;;;;;;;10.87;10.47;;;16.40;95.50;;;;;;4989032;28;20497;-73
2022/09/27 11:16:23;;;;;;;12.20;11.60;;;16.30;95.70;;;;;;4988852;28;20451;-75
2022/09/27 11:19:00;;;;;;;11.43;10.90;;;16.40;96.00;;;;;;4989186;28;20457;-73
2022/09/27 11:21:33;;;;;;;10.73;10.33;;;16.60;95.80;;;;;;4988626;28;20553;-74
2022/09/27 11:24:17;;;;;;;12.30;11.60;;;16.70;96.30;;;;;;4988976;28;20549;-73
2022/09/27 11:26:55;;;;;;;11.50;11.10;;;16.70;96.20;;;;;;4995238;28;21108;-75
2022/09/27 11:29:32;;;;;;;11.13;10.60;;;16.60;96.70;;;;;;4995542;28;20462;-74
2022/09/27 11:32:14;;;;;;;11.70;11.30;;;16.40;95.90;;;;;;4995182;28;21274;-75
2022/09/27 11:34:58;;;;;;;11.00;10.70;;;16.30;95.80;;;;;;4995136;28;20450;-73
2022/09/27 11:37:36;;;;;;;10.80;10.40;;;16.10;95.00;;;;;;4994864;28;20454;-75
2022/09/27 11:40:18;;;;;;;10.93;10.50;;;15.80;95.90;;;;;;4995009;28;20453;-74
2022/09/27 11:43:09;;;;;;;11.40;10.90;;;16.00;95.80;;;;;;4995163;28;20489;-73
2022/09/27 11:45:49;;;;;;;10.43;10.03;;;15.90;95.00;;;;;;4995132;28;20482;-75
2022/09/27 11:48:30;;;;;;;10.90;10.50;;;16.00;95.20;;;;;;4995193;28;20453;-74
2022/09/27 11:51:25;;;;;;;11.80;11.30;;;16.20;95.20;;;;;;4995071;28;20442;-75
2022/09/27 11:54:13;;;;;;;11.33;10.93;;;16.30;95.20;;;;;;4993182;28;20462;-74
2022/09/27 11:56:47;;;;;;;11.17;10.83;;;16.10;95.20;;;;;;4994874;28;20442;-73
2022/09/27 11:59:36;;;;;;;10.70;10.40;;;16.30;95.60;;;;;;4994699;28;20488;-74
2022/09/27 12:02:20;;;;;;;10.83;10.43;;;16.10;95.80;;;;;;4995027;28;20455;-74
2022/09/27 12:05:01;;;;;;;10.47;10.17;;;16.20;96.40;;;;;;4994802;28;20490;-74
2022/09/27 12:07:36;;;;;;;10.60;10.30;;;16.50;96.60;;;;;;4994680;28;20442;-75
2022/09/27 12:10:09;;;;;;;11.10;10.70;;;16.40;97.10;;;;;;4995155;28;20449;-75
2022/09/27 12:12:39;;;;;;;11.00;10.60;;;16.20;97.30;;;;;;4995209;28;20957;-74
2022/09/27 12:15:14;;;;;;;10.67;10.27;;;16.10;97.60;;;;;;4995148;28;20450;-73
2022/09/27 12:17:46;;;;;;;10.40;10.03;;;15.40;97.60;;;;;;4994749;28;20462;-74
2022/09/27 12:20:20;;;;;;;10.23;9.93;;;14.50;99.90;;;;;;4994396;28;21240;-75
2022/09/27 12:22:53;;;;;;;12.57;12.07;;;13.70;99.90;;;;;;4994485;28;20532;-76
2022/09/27 12:25:20;;;;;;;17.67;17.07;;;13.30;99.90;;;;;;4995313;28;20493;-73
2022/09/27 12:27:52;;;;;;;28.60;27.50;;;12.70;99.90;;;;;;4995185;28;20450;-76
2022/09/27 12:30:19;;;;;;;30.20;28.80;;;12.00;99.90;;;;;;4995793;28;20798;-74
2022/09/27 12:32:55;;;;;;;31.23;29.93;;;11.40;99.90;;;;;;4994962;28;20875;-76
2022/09/27 12:35:25;;;;;;;32.27;30.97;;;11.00;99.90;;;;;;4996333;28;20442;-76
2022/09/27 12:38:00;;;;;;;30.93;29.60;;;10.80;99.90;;;;;;4991238;28;20457;-77
2022/09/27 12:40:30;;;;;;;31.60;30.20;;;10.90;99.90;;;;;;4991730;28;20486;-76
2022/09/27 12:43:01;;;;;;;29.90;28.70;;;10.90;99.90;;;;;;4991377;28;20490;-75
2022/09/27 12:45:47;;;;;;;31.00;29.70;;;11.00;99.90;;;;;;4991288;28;20482;-74
2022/09/27 12:48:24;;;;;;;29.27;28.17;;;11.40;99.90;;;;;;4991256;28;20513;-74
2022/09/27 12:50:53;;;;;;;29.67;28.07;;;11.60;99.90;;;;;;4992191;28;20463;-74
2022/09/27 12:53:25;;;;;;;27.20;25.90;;;11.70;99.90;;;;;;4992223;28;20454;-74